ROTAER D-AMDT 23/20 Ver Mudanças

RUBEM BERTA ( SBUG ) / URUGUAIANA, RS 29 47 00S/057 02 13W
AD PUB INFRAERO 5SE UTC-3 VFR IFR L21 , L23 78 (256)

09 - L12 - ( 1500x30 ASPH 18/F/C/Y/T L14 , L15 ) - L12 - 27

SBCW (CINDACTA 2)
COM -
RÁDIO [3] [4] 118.100 125.900
RDONAV -
NDB URG 275 2947.16S/05702.20W
CMB- [1] TF SER - S2   RFFS - [5] CAT - 3
MET -

[2] CMA 1,2,3,4,5,6,7,8,9

AIS - [6] [7] (55) 3413-1498

RMK -

REGULAMENTOS PARA TRÁFEGO LOCAL
  1. OBS ACFT agrícola em voo próximo ao AD
CARTAS RELACIONADAS AO AERÓDROMO
  1. Cartas ver AIP MAP
COMPL -
  • [1] (DLY 1000-2200) - O/R: TEL: (55) 3413-4807 ou 9999-0298.
  • [2] Autoatendimento Help-Met.
  • [3] AFIS URUGUAIANA FREQ 125.900MHZ E 118.100MHZ OPERANDO REMOTAMENTE A PARTIR DAS DEPENDÊNCIAS DO ACC CURITIBA. PROCEDIMENTOS ESPECÍFICOS ESTÃO DESCRITOS NA AIC N39/2018
  • [4] (DLY 1100-2100)
  • [5] (SUN,MON,WED,FRI 1500-1730)
  • [6] (MON,TUE,WED,THU,FRI 0900-2000)
  • [7] Aceita PLN e suas atualizações por TEL PLN (55) 3413-1498.
TEMP (0)

Suplementos AIP (0)

NOTAM (1)

AGA

Z0049/17 N 09/01/2017 17:18
RWY 04/22 RETIRADA

REF: ROTAER 3-U
AIP BRASIL AD 2
AIP MAP ADC


Nascer/Por do Sol

10:44

21:00


METAR

021000Z 20003KT CAVOK 05/04 Q1021=

TAF

020300Z 0206/0218 19010KT 9999 SCT010 SCT020 TN04/0206Z TX12/0218Z RMK PDP=


Cartas (7)

ADC


AOC


IAC


SID


VAC



Rotas Preferenciais (0)